This is the latest recevied weather packets stored in our database for station/object KB8DOA. If no packets are shown the sender has not sent any weather packets the latest 10 day(s).
| Time | Temp. | Humidity | Pressure | Rain* | Wind** | Luminosity | Snow |
|---|---|---|---|---|---|---|---|
| 1778003404 | 27.78° C | 72% | 1010.9 hPa | 0 mm | - | 1277 W/m² | - |
| 1777999504 | 27.22° C | 76% | 1011.7 hPa | 0 mm | - | 1255 W/m² | - |
| 1777997704 | 26.67° C | 80% | 1013 hPa | 0 mm | - | 1196 W/m² | - |
| 1777996504 | 27.78° C | 76% | 1011.8 hPa | 0 mm | - | 1140 W/m² | - |
| 1777993803 | 27.22° C | 75% | 1011.3 hPa | 0 mm | - | 975 W/m² | - |
| 1777993204 | 27.22° C | 77% | 1011.6 hPa | 0 mm | - | 933 W/m² | - |
| 1777992904 | 27.22° C | 77% | 1011.6 hPa | 0 mm | - | 911 W/m² | - |
| 1777987204 | 26.11° C | 81% | 1011.1 hPa | 0 mm | - | 454 W/m² | - |
| 1777986604 | 26.11° C | 81% | 1011.2 hPa | 0 mm | - | 406 W/m² | - |
| 1777983604 | 25° C | 94% | 1014.7 hPa | 0 mm | - | 186 W/m² | - |
| 1777981504 | 23.89° C | 96% | 1014.7 hPa | 0 mm | - | 57 W/m² | - |
| 1777980304 | 22.78° C | 96% | 1014.6 hPa | 0 mm | - | 72 W/m² | - |
| 1777978204 | 22.78° C | 96% | 1014 hPa | 0 mm | - | 10 W/m² | - |
| 1777974904 | 22.78° C | 94% | 1012.9 hPa | 0 mm | - | 0 W/m² | - |
| 1777973103 | 23.33° C | 94% | 1012.7 hPa | 0 mm | - | 0 W/m² | - |
| 1777972204 | 23.33° C | 94% | 1012.6 hPa | 0 mm | - | 0 W/m² | - |
| 1777970704 | 23.33° C | 94% | 1012.6 hPa | 0 mm | - | 0 W/m² | - |
| 1777968304 | 23.33° C | 94% | 1012.7 hPa | 0 mm | - | 0 W/m² | - |
| 1777968005 | 23.33° C | 94% | 1012.8 hPa | 0 mm | - | 0 W/m² | - |
| 1777966503 | 23.33° C | 93% | 1012.9 hPa | 0 mm | - | 0 W/m² | - |
| 1777964105 | 23.33° C | 92% | 1012.6 hPa | 0 mm | - | 0 W/m² | - |
| 1777962603 | 23.89° C | 92% | 1013.1 hPa | 0 mm | - | 0 W/m² | - |
| 1777961104 | 23.89° C | 92% | 1013.2 hPa | 0 mm | - | 0 W/m² | - |
| 1777960504 | 23.89° C | 92% | 1013.2 hPa | 0 mm | - | 0 W/m² | - |
| 1777959904 | 23.89° C | 92% | 1013.5 hPa | 0 mm | - | 0 W/m² | - |
* Rain latest hour (hover to see other rain measurements)
** Current wind speed in m/s (hover to see current wind gust speed)